Flight Track Log - Related Links

Times and Time Zones

All times are in EDT time to prevent confusion due to time zone crossing. See the UPS982 flight status page for this flight to view local times or setup timezone preferences in your user account.

Time Position Orientation Groundspeed Altitude Reporting Facility
EDT Latitude Longitude Course Direction KTS MPH feet Rate Location/Type
Fri 04:06:07 AM 38.1630 -85.7410 165° South 172 198 800  Level FlightAware ADS-B
Fri 04:06:37 AM 38.1390 -85.7380 174° South 179 206 2,100 2,200 Climbing FlightAware ADS-B
Fri 04:07:07 AM 38.1130 -85.7410 185° South 216 249 3,000 2,133 Climbing FlightAware ADS-B
Fri 04:07:22 AM 38.0990 -85.7420 183° South 217 250 3,700 2,400 Climbing FlightAware ADS-B
Fri 04:07:32 AM 38.0880 -85.7450 192° South 219 252 4,000 1,680 Climbing FlightAware ADS-B
Fri 04:07:47 AM 38.0760 -85.7570 218° Southwest 230 265 4,400 1,800 Climbing FlightAware ADS-B
Fri 04:08:02 AM 38.0690 -85.7750 244° Southwest 238 274 4,900 2,400 Climbing FlightAware ADS-B
Fri 04:08:27 AM 38.0790 -85.8110 289° West 264 304 6,000 2,509 Climbing FlightAware ADS-B
Fri 04:08:57 AM 38.1060 -85.8420 318° Northwest 275 316 7,200 2,400 Climbing FlightAware ADS-B
Fri 04:09:12 AM 38.1210 -85.8560 324° Northwest 279 321 7,800 2,550 Climbing FlightAware ADS-B
Fri 04:09:37 AM 38.1470 -85.8820 322° Northwest 282 325 8,900 2,314 Climbing FlightAware ADS-B
Fri 04:10:22 AM 38.1940 -85.9290 322° Northwest 297 342 10,500 1,694 Climbing FlightAware ADS-B
Fri 04:11:02 AM 38.2400 -85.9750 322° Northwest 341 392 11,300 1,624 Climbing FlightAware ADS-B
Fri 04:11:47 AM 38.3020 -86.0370 322° Northwest 383 441 12,800 2,612 Climbing FlightAware ADS-B
Fri 04:12:27 AM 38.3580 -86.0930 322° Northwest 391 450 15,000 3,035 Climbing FlightAware ADS-B
Fri 04:13:12 AM 38.4210 -86.1570 321° Northwest 406 467 17,100 2,753 Climbing FlightAware ADS-B
Fri 04:13:52 AM 38.4820 -86.2180 322° Northwest 417 480 18,900 2,550 Climbing FlightAware ADS-B
Fri 04:14:32 AM 38.5440 -86.2800 322° Northwest 430 495 20,500 2,259 Climbing FlightAware ADS-B
Fri 04:15:17 AM 38.6100 -86.3600 317° Northwest 438 504 22,100 2,047 Climbing FlightAware ADS-B
Fri 04:15:57 AM 38.6510 -86.4470 301° West 445 512 23,400 2,100 Climbing FlightAware ADS-B
Fri 04:16:37 AM 38.6930 -86.5450 299° West 455 524 24,900 2,118 Climbing FlightAware ADS-B
Fri 04:17:22 AM 38.7380 -86.6510 299° West 464 534 26,400 2,118 Climbing FlightAware ADS-B
Fri 04:18:02 AM 38.7780 -86.7460 298° West 463 533 27,900 2,329 Climbing FlightAware ADS-B
Fri 04:18:47 AM 38.8210 -86.8490 298° West 454 522 29,700 2,753 Climbing FlightAware ADS-B
Fri 04:19:27 AM 38.8630 -86.9500 298° West 433 498 31,800 2,925 Climbing FlightAware ADS-B
Fri 04:20:07 AM 38.8990 -87.0340 299° West 404 465 33,600 1,553 Climbing FlightAware ADS-B
Fri 04:20:52 AM 38.9370 -87.1260 298° West 396 456 34,000 282 Climbing FlightAware ADS-B
Fri 04:21:32 AM 38.9730 -87.2130 298° West 395 455 34,000  Level FlightAware ADS-B
Fri 04:22:17 AM 39.0110 -87.3060 298° West 401 461 34,000  Level FlightAware ADS-B
Fri 04:22:57 AM 39.0460 -87.3900 298° West 403 464 34,000  Level FlightAware ADS-B
Fri 04:23:37 AM 39.0800 -87.4730 298° West 402 463 34,000  Level FlightAware ADS-B
Fri 04:24:22 AM 39.1190 -87.5670 298° West 400 460 34,000  Level FlightAware ADS-B
Fri 04:25:02 AM 39.1540 -87.6530 298° West 402 463 34,000  Level FlightAware ADS-B
Fri 04:25:47 AM 39.1930 -87.7500 297° West 413 475 34,000  Level FlightAware ADS-B
Fri 04:26:27 AM 39.2290 -87.8390 298° West 420 483 34,000  Level FlightAware ADS-B
Fri 04:27:07 AM 39.2650 -87.9260 298° West 422 486 34,000  Level FlightAware ADS-B
Fri 04:27:52 AM 39.3060 -88.0280 297° West 426 490 34,000  Level FlightAware ADS-B
Fri 04:28:32 AM 39.3430 -88.1200 297° West 416 479 34,000  Level FlightAware ADS-B
Fri 04:29:12 AM 39.3780 -88.2060 298° West 407 468 34,000  Level FlightAware ADS-B
Fri 04:29:57 AM 39.4160 -88.3010 297° West 402 463 34,000  Level FlightAware ADS-B
Fri 04:30:37 AM 39.4490 -88.3840 297° West 400 460 34,000  Level FlightAware ADS-B
Fri 04:31:22 AM 39.4880 -88.4830 297° West 401 461 34,000  Level FlightAware ADS-B
Fri 04:32:02 AM 39.5210 -88.5670 297° West 399 459 34,000  Level FlightAware ADS-B
Fri 04:32:42 AM 39.5560 -88.6530 298° West 398 458 34,000  Level FlightAware ADS-B
Fri 04:33:27 AM 39.5920 -88.7470 296° West 402 463 34,000  Level FlightAware ADS-B
Fri 04:34:07 AM 39.6270 -88.8340 298° West 409 471 34,000  Level FlightAware ADS-B
Fri 04:34:47 AM 39.6610 -88.9210 297° West 416 479 34,000  Level FlightAware ADS-B
Fri 04:35:32 AM 39.6990 -89.0230 296° West 421 484 34,000  Level FlightAware ADS-B
Fri 04:36:12 AM 39.7330 -89.1150 296° West 426 490 34,000  Level FlightAware ADS-B
Fri 04:36:57 AM 39.7710 -89.2200 295° West 429 494 34,000  Level FlightAware ADS-B
Fri 04:37:37 AM 39.8060 -89.3150 296° West 428 493 34,000  Level FlightAware ADS-B
Fri 04:38:22 AM 39.8430 -89.4160 296° West 425 489 34,000  Level FlightAware ADS-B
Fri 04:39:02 AM 39.8770 -89.5100 295° West 423 487 34,000  Level FlightAware ADS-B
Fri 04:39:42 AM 39.9090 -89.6010 295° West 422 486 34,000  Level FlightAware ADS-B
Fri 04:40:27 AM 39.9470 -89.7060 295° West 421 484 34,000  Level FlightAware ADS-B
Fri 04:41:07 AM 39.9800 -89.7970 295° West 420 483 34,000  Level FlightAware ADS-B
Fri 04:41:47 AM 40.0100 -89.8820 295° West 418 481 34,000  Level FlightAware ADS-B
Fri 04:42:32 AM 40.0490 -89.9900 295° West 417 480 34,000  Level FlightAware ADS-B
Fri 04:43:12 AM 40.0790 -90.0740 295° West 415 478 34,000  Level FlightAware ADS-B
Fri 04:43:57 AM 40.1180 -90.1860 295° West 414 476 34,000  Level FlightAware ADS-B
Fri 04:44:42 AM 40.1540 -90.2860 295° West 414 476 34,000  Level FlightAware ADS-B
Fri 04:45:17 AM 40.1820 -90.3670 294° West 414 476 34,000  Level FlightAware ADS-B
Fri 04:46:07 AM 40.2220 -90.4820 295° West 414 476 34,000  Level FlightAware ADS-B
Fri 04:46:47 AM 40.2540 -90.5720 295° West 414 476 34,000  Level FlightAware ADS-B
Fri 04:47:27 AM 40.2860 -90.6640 295° West 414 476 34,000  Level FlightAware ADS-B
Fri 04:48:12 AM 40.3210 -90.7660 294° West 426 490 34,000  Level FlightAware ADS-B
Fri 04:48:52 AM 40.3530 -90.8590 294° West 429 494 34,000  Level FlightAware ADS-B
Fri 04:49:32 AM 40.3860 -90.9550 294° West 431 496 34,000  Level FlightAware ADS-B
Fri 04:50:17 AM 40.4240 -91.0650 294° West 434 499 34,000  Level FlightAware ADS-B
Fri 04:50:57 AM 40.4550 -91.1560 294° West 436 502 34,000  Level FlightAware ADS-B
Fri 04:51:37 AM 40.4900 -91.2580 294° West 439 505 34,000  Level FlightAware ADS-B
Fri 04:52:17 AM 40.5230 -91.3550 294° West 440 506 34,000  Level FlightAware ADS-B
Fri 04:53:07 AM 40.5640 -91.4770 294° West 441 507 34,000  Level FlightAware ADS-B
Fri 04:53:47 AM 40.5970 -91.5740 294° West 442 509 34,000  Level FlightAware ADS-B
Fri 04:54:32 AM 40.6330 -91.6820 294° West 444 511 34,000  Level FlightAware ADS-B
Fri 04:55:27 AM 40.6790 -91.8220 293° West 448 516 34,000  Level FlightAware ADS-B
Fri 04:56:07 AM 40.7120 -91.9210 294° West 450 518 34,000  Level FlightAware ADS-B
Fri 04:56:47 AM 40.7460 -92.0230 294° West 453 521 34,000  Level FlightAware ADS-B
Fri 04:57:32 AM 40.7810 -92.1290 294° West 456 525 34,000  Level FlightAware ADS-B
Fri 04:58:12 AM 40.8170 -92.2370 294° West 457 526 34,000  Level FlightAware ADS-B
Fri 04:58:47 AM 40.8420 -92.3160 293° West 457 526 34,000  Level FlightAware ADS-B
Fri 04:59:37 AM 40.8880 -92.4550 294° West 460 529 34,000  Level FlightAware ADS-B
Fri 05:00:17 AM 40.9220 -92.5600 293° West 461 531 34,000  Level FlightAware ADS-B
Fri 05:00:57 AM 40.9560 -92.6630 294° West 463 533 34,000  Level FlightAware ADS-B
Fri 05:01:42 AM 40.9930 -92.7800 293° West 466 536 34,000  Level FlightAware ADS-B
Fri 05:02:27 AM 41.0310 -92.8970 293° West 466 536 34,000  Level FlightAware ADS-B
Fri 05:03:07 AM 41.0650 -93.0030 293° West 465 535 34,000  Level FlightAware ADS-B
Fri 05:03:47 AM 41.0980 -93.1070 293° West 465 535 34,000  Level FlightAware ADS-B
Fri 05:04:27 AM 41.1320 -93.2140 293° West 463 533 34,000  Level FlightAware ADS-B
Fri 05:05:07 AM 41.1640 -93.3150 293° West 460 529 34,000  Level FlightAware ADS-B
Fri 05:05:57 AM 41.2050 -93.4470 292° West 459 528 34,000  Level FlightAware ADS-B
Fri 05:06:27 AM 41.2260 -93.5150 292° West 457 526 34,000  Level FlightAware ADS-B
Fri 05:07:17 AM 41.2640 -93.6380 292° West 457 526 34,000  Level FlightAware ADS-B
Fri 05:07:57 AM 41.2910 -93.7260 292° West 457 526 34,000  Level FlightAware ADS-B
Fri 05:08:42 AM 41.3380 -93.8740 293° West 459 528 34,000  Level FlightAware ADS-B
Fri 05:09:22 AM 41.3710 -93.9790 293° West 460 529 34,000  Level FlightAware ADS-B
Fri 05:10:07 AM 41.4040 -94.0870 292° West 461 531 34,000  Level FlightAware ADS-B
Fri 05:10:47 AM 41.4390 -94.2040 292° West 461 531 34,000  Level FlightAware ADS-B
Fri 05:11:32 AM 41.4710 -94.3080 292° West 461 531 34,000  Level FlightAware ADS-B
Fri 05:12:12 AM 41.5050 -94.4210 292° West 460 529 34,000  Level FlightAware ADS-B
Fri 05:12:47 AM 41.5310 -94.5090 292° West 460 529 34,000  Level FlightAware ADS-B
Fri 05:13:37 AM 41.5630 -94.6220 291° West 460 529 34,000  Level FlightAware ADS-B
Fri 05:14:17 AM 41.6060 -94.7560 293° West 457 526 34,000  Level FlightAware ADS-B
Fri 05:15:02 AM 41.6370 -94.8620 291° West 457 526 34,000  Level FlightAware ADS-B
Fri 05:15:42 AM 41.6620 -94.9520 290° West 457 526 34,000  Level FlightAware ADS-B
Fri 05:16:22 AM 41.6880 -95.0420 291° West 457 526 34,000  Level FlightAware ADS-B
Fri 05:17:02 AM 41.7140 -95.1310 291° West 457 526 34,000  Level FlightAware ADS-B
Fri 05:17:42 AM 41.7400 -95.2210 291° West 457 526 34,000  Level FlightAware ADS-B
Fri 05:18:32 AM 41.7720 -95.3340 291° West 457 526 34,000  Level FlightAware ADS-B
Fri 05:19:12 AM 41.7980 -95.4240 291° West 457 526 34,000  Level FlightAware ADS-B
Fri 05:19:52 AM 41.8630 -95.6290 293° West 450 518 34,000  Level FlightAware ADS-B
Fri 05:20:32 AM 41.8890 -95.7200 291° West 450 518 34,000  Level FlightAware ADS-B
Fri 05:21:12 AM 41.9140 -95.8080 291° West 450 518 34,000  Level FlightAware ADS-B
Fri 05:22:02 AM 41.9460 -95.9190 291° West 450 518 34,000  Level FlightAware ADS-B
Fri 05:22:32 AM 41.9820 -96.0460 291° West 448 516 34,000  Level FlightAware ADS-B
Fri 05:23:22 AM 42.0150 -96.1650 291° West 448 516 34,000  Level FlightAware ADS-B
Fri 05:24:02 AM 42.0390 -96.2540 290° West 448 516 34,000  Level FlightAware ADS-B
Fri 05:24:42 AM 42.0630 -96.3430 290° West 448 516 34,000  Level FlightAware ADS-B
Fri 05:25:22 AM 42.0870 -96.4330 290° West 448 516 34,000  Level FlightAware ADS-B
Fri 05:26:12 AM 42.1170 -96.5440 290° West 448 516 34,000  Level FlightAware ADS-B
Fri 05:26:52 AM 42.1410 -96.6330 290° West 448 516 34,000  Level FlightAware ADS-B
Fri 05:27:32 AM 42.1650 -96.7230 290° West 448 516 34,000  Level FlightAware ADS-B
Fri 05:28:12 AM 42.1890 -96.8120 290° West 448 516 34,000  Level FlightAware ADS-B
Fri 05:28:52 AM 42.2140 -96.9020 291° West 448 516 34,000  Level FlightAware ADS-B
Fri 05:29:42 AM 42.2440 -97.0130 290° West 448 516 34,000  Level FlightAware ADS-B
Fri 05:30:22 AM 42.2680 -97.1030 290° West 448 516 34,000  Level FlightAware ADS-B
Fri 05:31:02 AM 42.2920 -97.1920 290° West 448 516 34,000  Level FlightAware ADS-B
Fri 05:31:42 AM 42.3160 -97.2820 290° West 448 516 34,000  Level FlightAware ADS-B
Fri 05:32:32 AM 42.3460 -97.3940 290° West 448 516 34,000  Level FlightAware ADS-B
Fri 05:33:23 AM 42.4408 -97.7150 290° West 433 498 34,000  Level Minneapolis Center
Fri 05:34:24 AM 42.4814 -97.8681 290° West 433 498 34,000  Level Minneapolis Center
Fri 05:35:24 AM 42.5219 -98.0225 290° West 437 503 34,000  Level Minneapolis Center
Fri 05:36:24 AM 42.5625 -98.1786 289° West 442 509 34,000  Level Minneapolis Center
Fri 05:37:25 AM 42.6036 -98.3361 290° West 444 511 34,000  Level Minneapolis Center
Fri 05:38:25 AM 42.6444 -98.4947 289° West 445 512 34,000  Level Minneapolis Center
Fri 05:39:26 AM 42.6850 -98.6531 289° West 446 513 34,000  Level Minneapolis Center
Fri 05:40:26 AM 42.7256 -98.8125 289° West 447 514 34,000  Level Minneapolis Center
Fri 05:41:26 AM 42.7661 -98.9728 289° West 450 518 34,000  Level Minneapolis Center
Fri 05:42:27 AM 42.8067 -99.1344 289° West 452 520 34,000  Level Minneapolis Center
Fri 05:43:27 AM 42.8472 -99.2967 289° West 453 521 34,000  Level Minneapolis Center
Fri 05:44:27 AM 42.8875 -99.4594 289° West 455 524 34,000  Level Minneapolis Center
Fri 05:45:28 AM 42.9278 -99.6228 289° West 454 522 34,000  Level Minneapolis Center
Fri 05:46:28 AM 42.9661 -99.7808 288° West 455 524 34,000  Level Minneapolis Center
Fri 05:47:29 AM 43.0058 -99.9453 288° West 456 525 34,000  Level Minneapolis Center
Fri 05:48:29 AM 43.0458 -100.1106 288° West 459 528 34,000  Level Minneapolis Center
Fri 05:48:45 AM 43.0525 -100.1400 287° West 458 527 34,000  Level Denver Center
Fri 05:49:46 AM 43.1003 -100.3389 288° West 458 527 34,000  Level Denver Center
Fri 05:50:46 AM 43.1403 -100.5069 288° West 461 531 34,000  Level Denver Center
Fri 05:51:46 AM 43.1786 -100.6733 288° West 457 526 34,000  Level Denver Center
Fri 05:52:47 AM 43.2175 -100.8392 288° West 455 524 34,000  Level Denver Center
Fri 05:53:47 AM 43.2564 -101.0056 288° West 457 526 34,000  Level Denver Center
Fri 05:54:47 AM 43.2936 -101.1714 287° West 456 525 34,000  Level Denver Center
Fri 05:55:48 AM 43.3325 -101.3383 288° West 458 527 34,000  Level Denver Center
Fri 05:56:48 AM 43.3700 -101.5042 287° West 455 524 34,000  Level Denver Center
Fri 05:57:48 AM 43.4064 -101.6711 287° West 457 526 34,000  Level Denver Center
Fri 05:58:48 AM 43.4444 -101.8389 287° West 458 527 34,000  Level Denver Center
Fri 05:59:49 AM 43.4817 -102.0075 287° West 459 528 34,000  Level Denver Center
Fri 06:00:50 AM 43.5194 -102.1769 287° West 461 531 34,000  Level Denver Center
Fri 06:01:50 AM 43.5547 -102.3422 286° West 467 537 34,000  Level Denver Center
Fri 06:02:50 AM 43.5967 -102.5342 287° West 470 541 34,000  Level Denver Center
Fri 06:03:51 AM 43.6303 -102.6975 286° West 466 536 34,000  Level Denver Center
Fri 06:04:51 AM 43.6650 -102.8625 286° West 466 536 34,000  Level Denver Center
Fri 06:05:51 AM 43.7014 -103.0308 287° West 474 545 34,000  Level Denver Center
Fri 06:06:51 AM 43.7428 -103.2267 286° West 476 548 34,000  Level Denver Center
Fri 06:07:52 AM 43.7775 -103.3944 286° West 476 548 34,000  Level Denver Center
Fri 06:08:52 AM 43.8122 -103.5617 286° West 474 545 34,000  Level Denver Center
Fri 06:09:52 AM 43.8519 -103.7558 286° West 471 542 34,000  Level Denver Center
Fri 06:10:52 AM 43.8856 -103.9225 286° West 471 542 34,000  Level Denver Center
Fri 06:11:53 AM 43.9189 -104.0886 286° West 471 542 34,000  Level Denver Center
Fri 06:12:53 AM 43.9567 -104.2828 285° West 469 540 34,000  Level Denver Center
Fri 06:13:53 AM 43.9897 -104.4494 285° West 469 540 34,000  Level Denver Center
Fri 06:14:53 AM 44.0222 -104.6133 285° West 464 534 34,000  Level Denver Center
Fri 06:15:54 AM 44.0536 -104.7819 285° West 469 540 34,000  Level Denver Center
Fri 06:16:54 AM 44.0906 -104.9742 285° West 464 534 34,000  Level Denver Center
Fri 06:17:54 AM 44.1228 -105.1392 285° West 463 533 34,000  Level Denver Center
Fri 06:18:54 AM 44.1539 -105.3047 285° West 463 533 34,000  Level Denver Center
Fri 06:19:55 AM 44.1883 -105.4994 284° West 464 534 34,000  Level Denver Center
Fri 06:20:55 AM 44.2192 -105.6642 285° West 463 533 34,000  Level Denver Center
Fri 06:21:55 AM 44.2497 -105.8294 285° West 461 531 34,000  Level Denver Center
Fri 06:22:56 AM 44.2836 -106.0239 284° West 462 532 34,000  Level Denver Center
Fri 06:23:56 AM 44.3122 -106.1758 285° West 462 532 34,000  Level Denver Center
Fri 06:24:56 AM 44.3456 -106.3703 284° West 461 531 34,000  Level Denver Center
Fri 06:25:56 AM 44.3744 -106.5356 284° West 460 529 34,000  Level Denver Center
Fri 06:26:20 AM 44.3850 -106.5911 285° West 460 529 34,000  Level Salt Lake Center
Fri 06:27:20 AM 44.4167 -106.7850 283° West 459 528 34,000  Level Salt Lake Center
Fri 06:28:21 AM 44.4456 -106.9514 284° West 460 529 34,000  Level Salt Lake Center
Fri 06:29:21 AM 44.4736 -107.1172 283° West 458 527 34,000  Level Salt Lake Center
Fri 06:30:21 AM 44.5003 -107.2828 283° West 456 525 34,000  Level Salt Lake Center
Fri 06:31:21 AM 44.5328 -107.4772 283° West 458 527 34,000  Level Salt Lake Center
Fri 06:32:21 AM 44.5606 -107.6447 283° West 457 526 34,000  Level Salt Lake Center
Fri 06:33:22 AM 44.5881 -107.8122 283° West 456 525 34,000  Level Salt Lake Center
Fri 06:34:22 AM 44.6144 -107.9811 282° West 456 525 34,000  Level Salt Lake Center
Fri 06:35:22 AM 44.6464 -108.1783 283° West 458 527 34,000  Level Salt Lake Center
Fri 06:36:23 AM 44.6739 -108.3461 283° West 458 527 34,000  Level Salt Lake Center
Fri 06:37:22 AM 44.7000 -108.5142 282° West 458 527 34,000  Level Salt Lake Center
Fri 06:38:23 AM 44.7258 -108.6800 282° West 455 524 34,000  Level Salt Lake Center
Fri 06:39:23 AM 44.7553 -108.8769 282° West 458 527 34,000  Level Salt Lake Center
Fri 06:40:23 AM 44.7806 -109.0450 282° West 460 529 34,000  Level Salt Lake Center
Fri 06:41:23 AM 44.8044 -109.2131 281° West 459 528 34,000  Level Salt Lake Center
Fri 06:42:23 AM 44.8300 -109.3825 282° West 460 529 34,000  Level Salt Lake Center
Fri 06:43:24 AM 44.8583 -109.5792 282° West 459 528 34,000  Level Salt Lake Center
Fri 06:44:24 AM 44.8828 -109.7483 282° West 460 529 34,000  Level Salt Lake Center
Fri 06:45:24 AM 44.9075 -109.9158 282° West 460 529 34,000  Level Salt Lake Center
Fri 06:46:24 AM 44.9311 -110.0853 281° West 461 531 34,000  Level Salt Lake Center
Fri 06:47:25 AM 44.9594 -110.2842 281° West 463 533 34,000  Level Salt Lake Center
Fri 06:48:25 AM 44.9819 -110.4542 281° West 463 533 34,000  Level Salt Lake Center
Fri 06:49:25 AM 45.0056 -110.6244 281° West 463 533 34,000  Level Salt Lake Center
Fri 06:50:25 AM 45.0322 -110.8222 281° West 460 529 34,000  Level Salt Lake Center
Fri 06:51:25 AM 45.0547 -110.9942 281° West 465 535 34,000  Level Salt Lake Center
Fri 06:52:26 AM 45.0772 -111.1653 281° West 466 536 34,000  Level Salt Lake Center
Fri 06:53:26 AM 45.1031 -111.3650 280° West 465 535 34,000  Level Salt Lake Center
Fri 06:54:26 AM 45.1228 -111.5164 281° West 465 535 34,000  Level Salt Lake Center
Fri 06:55:26 AM 45.1453 -111.6997 280° West 469 540 34,000  Level Salt Lake Center
Fri 06:56:27 AM 45.1681 -111.8822 280° West 468 539 34,000  Level Salt Lake Center
Fri 06:57:27 AM 45.1900 -112.0625 280° West 465 535 34,000  Level Salt Lake Center
Fri 06:58:27 AM 45.2131 -112.2561 280° West 466 536 34,000  Level Salt Lake Center
Fri 06:59:27 AM 45.2347 -112.4283 280° West 466 536 34,000  Level Salt Lake Center
Fri 07:00:28 AM 45.2572 -112.6311 279° West 466 536 34,000  Level Salt Lake Center
Fri 07:01:28 AM 45.2739 -112.8058 278° West 468 539 34,000  Level Salt Lake Center
Fri 07:02:28 AM 45.2894 -112.9811 277° West 469 540 34,000  Level Salt Lake Center
Fri 07:03:29 AM 45.3103 -113.1858 278° West 470 541 34,000  Level Salt Lake Center
Fri 07:04:29 AM 45.3256 -113.3625 277° West 470 541 34,000  Level Salt Lake Center
Fri 07:05:29 AM 45.3422 -113.5381 278° West 470 541 34,000  Level Salt Lake Center
Fri 07:06:29 AM 45.3592 -113.7211 278° West 469 540 34,000  Level Salt Lake Center
Fri 07:07:30 AM 45.3761 -113.9258 277° West 467 537 34,000  Level Salt Lake Center
Fri 07:08:30 AM 45.3914 -114.1000 277° West 464 534 34,000  Level Salt Lake Center
Fri 07:09:30 AM 45.4061 -114.2750 277° West 465 535 34,000  Level Salt Lake Center
Fri 07:10:30 AM 45.4206 -114.4497 277° West 467 537 34,000  Level Salt Lake Center
Fri 07:11:31 AM 45.4369 -114.6544 277° West 466 536 34,000  Level Salt Lake Center
Fri 07:12:31 AM 45.4522 -114.8300 277° West 468 539 34,000  Level Salt Lake Center
Fri 07:13:31 AM 45.4658 -115.0081 276° West 473 544 34,000  Level Salt Lake Center
Fri 07:14:16 AM 45.4767 -115.1528 276° West 464 534 34,000  Level Seattle Center
Fri 07:15:16 AM 45.4922 -115.3269 277° West 465 535 34,000  Level Seattle Center
Fri 07:16:16 AM 45.5336 -115.4908 290° West 460 529 34,000  Level Seattle Center
Fri 07:17:16 AM 45.5872 -115.6767 292° West 455 524 34,000  Level Seattle Center
Fri 07:18:17 AM 45.6325 -115.8378 292° West 457 526 34,000  Level Seattle Center
Fri 07:19:17 AM 45.6792 -116.0006 292° West 457 526 34,000  Level Seattle Center
Fri 07:20:17 AM 45.7272 -116.1703 292° West 460 529 34,000  Level Seattle Center
Fri 07:21:17 AM 45.7747 -116.3386 292° West 460 529 34,000  Level Seattle Center
Fri 07:22:17 AM 45.8219 -116.5089 292° West 459 528 34,000  Level Seattle Center
Fri 07:23:17 AM 45.8692 -116.6786 292° West 460 529 34,000  Level Seattle Center
Fri 07:24:17 AM 45.9153 -116.8486 291° West 458 527 34,000  Level Seattle Center
Fri 07:25:18 AM 45.9619 -117.0183 292° West 458 527 34,000  Level Seattle Center
Fri 07:26:18 AM 46.0086 -117.1900 291° West 460 529 34,000  Level Seattle Center
Fri 07:27:18 AM 46.0547 -117.3608 291° West 459 528 34,000  Level Seattle Center
Fri 07:28:18 AM 46.1000 -117.5322 291° West 457 526 34,000  Level Seattle Center
Fri 07:29:18 AM 46.1472 -117.7061 291° West 455 524 34,000  Level Seattle Center
Fri 07:30:18 AM 46.1908 -117.8725 291° West 455 524 34,000  Level Seattle Center
Fri 07:31:18 AM 46.2353 -118.0450 290° West 457 526 34,000  Level Seattle Center
Fri 07:32:19 AM 46.2794 -118.2167 290° West 456 525 34,000  Level Seattle Center
Fri 07:33:19 AM 46.3242 -118.3886 291° West 456 525 34,000  Level Seattle Center
Fri 07:34:19 AM 46.3675 -118.5608 290° West 456 525 34,000  Level Seattle Center
Fri 07:35:19 AM 46.4114 -118.7325 290° West 454 522 34,000  Level Seattle Center
Fri 07:36:19 AM 46.4581 -118.9194 290° West 455 524 34,000  Level Seattle Center
Fri 07:37:19 AM 46.5008 -119.0903 290° West 454 522 34,000  Level Seattle Center
Fri 07:38:20 AM 46.5439 -119.2636 290° West 457 526 34,000  Level Seattle Center
Fri 07:39:20 AM 46.5858 -119.4350 290° West 453 521 34,000  Level Seattle Center
Fri 07:40:20 AM 46.6283 -119.6067 290° West 453 521 34,000  Level Seattle Center
Fri 07:41:20 AM 46.6692 -119.7786 289° West 453 521 34,000  Level Seattle Center
Fri 07:42:20 AM 46.7108 -119.9514 289° West 454 522 34,000  Level Seattle Center
Fri 07:43:20 AM 46.7522 -120.1236 289° West 453 521 34,000 -800 Level Seattle Center
Fri 07:44:20 AM 46.7928 -120.2964 289° West 452 520 32,400 -1,871 Descending Seattle Center
Fri 07:50:17 AM 47.0150 -121.2530 289° West 388 447 21,000 -1,895 Descending FlightAware ADS-B
Fri 07:51:37 AM 47.0490 -121.4050 288° West 403 464 18,600 -2,215 Descending FlightAware ADS-B
Fri 07:52:27 AM 47.1150 -121.6040 296° West 407 468 16,200 -2,000 Descending FlightAware ADS-B
Fri 07:53:07 AM 47.1150 -121.6040 296° West 400 460 15,600 -960 Descending FlightAware ADS-B
Fri 07:53:42 AM 47.1150 -121.6040 296° West 400 460 15,000 -706 Descending FlightAware ADS-B
Fri 07:54:32 AM 47.2400 -121.8780 304° West 399 459 14,600 -1,129 Descending FlightAware ADS-B
Fri 07:55:07 AM 47.2770 -121.9570 305° West 373 429 13,400 -1,500 Descending FlightAware ADS-B
Fri 07:55:52 AM 47.3170 -122.0470 303° West 341 392 12,600 -1,200 Descending FlightAware ADS-B
Fri 07:56:27 AM 47.3440 -122.1060 304° West 335 386 11,800 -1,694 Descending FlightAware ADS-B
Fri 07:57:17 AM 47.3880 -122.2050 303° West 330 380 10,200 -1,575 Descending FlightAware ADS-B
Fri 07:57:47 AM 47.4120 -122.2610 302° West 316 364 9,700 -857 Descending FlightAware ADS-B
Fri 07:57:52 AM 47.4180 -122.2730 306° West 310 357 9,700 171 Level FlightAware ADS-B
Fri 07:58:22 AM 47.4400 -122.3230 303° West 284 327 9,800  Climbing FlightAware ADS-B
Fri 07:58:42 AM 47.4540 -122.3500 307° West 282 325 9,700 -1,000 Descending FlightAware ADS-B
Fri 07:58:52 AM 47.4680 -122.3610 332° Northwest 280 322 9,300 -2,550 Descending FlightAware ADS-B
Fri 07:59:22 AM 47.5010 -122.3870 332° Northwest 282 325 8,000 -1,714 Descending FlightAware ADS-B
Fri 08:00:02 AM 47.5440 -122.4230 331° Northwest 279 321 7,300 -2,164 Descending FlightAware ADS-B
Fri 08:00:23 AM 47.5700 -122.4478 331° Northwest 278 320 5,800 -3,429 Descending Seattle Center
Fri 08:00:51 AM 47.6019 -122.4778 328° Northwest 266 306 4,500 -2,300 Descending Seattle Center
Fri 08:01:23 AM 47.6350 -122.4919 344° North 260 299 3,500 -2,100 Descending Seattle Center
Fri 08:01:51 AM 47.6594 -122.4592 42° Northeast 249 287 2,400 -1,200 Descending Seattle Center
Fri 08:02:23 AM 47.6544 -122.4139 99° East 236 272 2,300 -295 Descending Seattle Center
Fri 08:02:52 AM 47.6336 -122.3914 144° Southeast 181 208 2,100 -600 Descending Seattle Center
Fri 08:03:23 AM 47.6103 -122.3717 150° Southeast 189 217 1,700 -885 Descending Seattle Center
Fri 08:03:53 AM 47.5911 -122.3556 150° Southeast 152 175 1,200 -800 Descending Seattle Center
Fri 08:04:23 AM 47.5728 -122.3408 152° Southeast 158 182 900 -800 Descending Seattle Center
Fri 08:04:53 AM 47.5567 -122.3253 147° Southeast 145 167 400 -700 Descending Seattle Center
Fri 08:05:23 AM 47.5453 -122.3153 149° Southeast 145 167 200 -400 Descending Seattle Center
Fri 08:07:00 AM 47.5300 -122.3020 133° Southeast  Level Estimated
Fri 08:14:00 AM 47.5300 -122.3020 133° Southeast  Level Estimated
Fri 08:15:00 AM 47.5300 -122.3020 133° Southeast  Level Estimated
Fri 08:16:00 AM 47.5300 -122.3020 133° Southeast  Level Estimated
Fri 08:17:00 AM 47.5300 -122.3020 133° Southeast  Level Estimated
Fri 08:18:00 AM 47.5300 -122.3020 133° Southeast  Level Estimated
Fri 08:19:00 AM 47.5300 -122.3020 133° Southeast  Level Estimated
Fri 08:20:00 AM 47.5300 -122.3020 133° Southeast  Level Estimated

Login

Don't have an account? Register now (free) for customized features, flight alerts, and more!